sensor_id;sensor_type;location;lat;lon;timestamp;pressure;altitude;pressure_sealevel;temperature;humidity
70072;BME280;57434;42.794;23.302;2022-10-30T00:00:47;96149.53;;;1.93;67.40
70072;BME280;57434;42.794;23.302;2022-10-30T00:03:15;96482.44;;;4.69;67.74
70072;BME280;57434;42.794;23.302;2022-10-30T00:05:45;96469.91;;;4.61;68.30
70072;BME280;57434;42.794;23.302;2022-10-30T00:08:14;96420.63;;;4.13;68.09
70072;BME280;57434;42.794;23.302;2022-10-30T00:10:42;96230.66;;;3.29;68.06
70072;BME280;57434;42.794;23.302;2022-10-30T00:13:09;96309.19;;;3.78;68.22
70072;BME280;57434;42.794;23.302;2022-10-30T00:15:37;96297.72;;;3.76;67.75
70072;BME280;57434;42.794;23.302;2022-10-30T00:18:04;96485.56;;;5.20;68.19
70072;BME280;57434;42.794;23.302;2022-10-30T00:20:31;96225.31;;;3.54;67.41
70072;BME280;57434;42.794;23.302;2022-10-30T00:22:58;96080.31;;;2.53;67.37
70072;BME280;57434;42.794;23.302;2022-10-30T00:25:26;96342.84;;;3.96;67.78
70072;BME280;57434;42.794;23.302;2022-10-30T00:27:53;96184.97;;;2.81;68.10
70072;BME280;57434;42.794;23.302;2022-10-30T00:30:20;96528.91;;;4.68;69.01
70072;BME280;57434;42.794;23.302;2022-10-30T00:32:47;96227.75;;;3.16;69.00
70072;BME280;57434;42.794;23.302;2022-10-30T00:35:14;96168.06;;;2.56;68.93
70072;BME280;57434;42.794;23.302;2022-10-30T00:37:41;96177.69;;;2.51;69.28
70072;BME280;57434;42.794;23.302;2022-10-30T00:40:13;96317.75;;;3.67;70.11
70072;BME280;57434;42.794;23.302;2022-10-30T00:42:41;96471.25;;;4.89;70.39
70072;BME280;57434;42.794;23.302;2022-10-30T00:45:12;96438.03;;;4.82;69.65
70072;BME280;57434;42.794;23.302;2022-10-30T00:47:53;96310.41;;;4.09;69.28
70072;BME280;57434;42.794;23.302;2022-10-30T00:50:26;96289.69;;;4.14;71.59
70072;BME280;57434;42.794;23.302;2022-10-30T00:53:06;96463.34;;;5.49;71.61
70072;BME280;57434;42.794;23.302;2022-10-30T00:55:41;96494.34;;;5.63;70.63
70072;BME280;57434;42.794;23.302;2022-10-30T00:58:11;96427.88;;;5.36;69.59
70072;BME280;57434;42.794;23.302;2022-10-30T01:00:43;96446.13;;;5.37;68.98
70072;BME280;57434;42.794;23.302;2022-10-30T01:03:12;96240.66;;;4.07;68.51
70072;BME280;57434;42.794;23.302;2022-10-30T01:05:39;96431.41;;;5.53;68.38
70072;BME280;57434;42.794;23.302;2022-10-30T01:08:08;96243.66;;;4.29;67.78
70072;BME280;57434;42.794;23.302;2022-10-30T01:10:36;96464.47;;;5.51;67.98
70072;BME280;57434;42.794;23.302;2022-10-30T01:13:03;96266.75;;;4.26;67.21
70072;BME280;57434;42.794;23.302;2022-10-30T01:15:35;96403.97;;;4.77;66.53
70072;BME280;57434;42.794;23.302;2022-10-30T01:23:51;96422.94;;;4.66;68.59
70072;BME280;57434;42.794;23.302;2022-10-30T01:26:44;96434.47;;;4.81;68.33
70072;BME280;57434;42.794;23.302;2022-10-30T01:40:35;96257.44;;;2.80;69.75
70072;BME280;57434;42.794;23.302;2022-10-30T01:43:02;96263.59;;;2.87;70.45
70072;BME280;57434;42.794;23.302;2022-10-30T01:52:21;96419.53;;;4.59;70.20
70072;BME280;57434;42.794;23.302;2022-10-30T01:54:37;96419.91;;;4.44;69.87
70072;BME280;57434;42.794;23.302;2022-10-30T01:57:17;96421.97;;;4.40;69.50
70072;BME280;57434;42.794;23.302;2022-10-30T02:00:00;96121.09;;;2.13;69.02
70072;BME280;57434;42.794;23.302;2022-10-30T02:02:30;96112.06;;;2.09;68.66
70072;BME280;57434;42.794;23.302;2022-10-30T02:04:58;96237.81;;;2.90;68.73
70072;BME280;57434;42.794;23.302;2022-10-30T02:07:26;96237.28;;;2.79;68.98
70072;BME280;57434;42.794;23.302;2022-10-30T02:09:54;96409.53;;;3.76;69.22
70072;BME280;57434;42.794;23.302;2022-10-30T02:12:22;96149.66;;;1.86;69.67
70072;BME280;57434;42.794;23.302;2022-10-30T02:14:53;96419.00;;;3.79;69.33
70072;BME280;57434;42.794;23.302;2022-10-30T02:17:22;96421.91;;;3.92;68.82
70072;BME280;57434;42.794;23.302;2022-10-30T02:19:50;96409.41;;;3.64;69.15
70072;BME280;57434;42.794;23.302;2022-10-30T02:22:17;96068.16;;;1.28;69.33
70072;BME280;57434;42.794;23.302;2022-10-30T02:24:44;96251.75;;;2.47;69.57
70072;BME280;57434;42.794;23.302;2022-10-30T02:27:12;96405.28;;;3.52;69.81
70072;BME280;57434;42.794;23.302;2022-10-30T02:29:39;96212.44;;;2.13;69.18
70072;BME280;57434;42.794;23.302;2022-10-30T02:32:06;96270.59;;;2.76;69.06
70072;BME280;57434;42.794;23.302;2022-10-30T02:34:33;96207.94;;;2.42;69.73
70072;BME280;57434;42.794;23.302;2022-10-30T02:37:00;96455.22;;;3.72;69.35
70072;BME280;57434;42.794;23.302;2022-10-30T02:39:27;96448.81;;;3.55;70.39
70072;BME280;57434;42.794;23.302;2022-10-30T02:41:54;96266.53;;;2.60;69.07
70072;BME280;57434;42.794;23.302;2022-10-30T02:44:21;96387.28;;;3.40;68.95
70072;BME280;57434;42.794;23.302;2022-10-30T02:46:48;96169.41;;;1.88;68.67
70072;BME280;57434;42.794;23.302;2022-10-30T02:49:15;96442.50;;;3.55;69.67
70072;BME280;57434;42.794;23.302;2022-10-30T02:51:42;96420.28;;;3.55;70.18
70072;BME280;57434;42.794;23.302;2022-10-30T02:54:09;96143.53;;;1.98;69.17
70072;BME280;57434;42.794;23.302;2022-10-30T02:56:39;95929.22;;;0.61;68.42
70072;BME280;57434;42.794;23.302;2022-10-30T02:59:06;96420.03;;;4.21;70.09
70072;BME280;57434;42.794;23.302;2022-10-30T03:01:33;95916.81;;;0.92;68.75
70072;BME280;57434;42.794;23.302;2022-10-30T03:04:01;96025.72;;;1.78;68.49
70072;BME280;57434;42.794;23.302;2022-10-30T03:06:28;95983.34;;;1.45;69.39
70072;BME280;57434;42.794;23.302;2022-10-30T03:08:55;95892.38;;;0.48;69.17
70072;BME280;57434;42.794;23.302;2022-10-30T03:11:22;96399.94;;;3.97;68.64
70072;BME280;57434;42.794;23.302;2022-10-30T03:13:49;96313.91;;;3.25;68.66
70072;BME280;57434;42.794;23.302;2022-10-30T03:16:19;96149.91;;;2.35;68.59
70072;BME280;57434;42.794;23.302;2022-10-30T03:18:50;95753.00;;;-0.81;69.00
70072;BME280;57434;42.794;23.302;2022-10-30T03:21:19;96425.41;;;3.76;69.52
70072;BME280;57434;42.794;23.302;2022-10-30T03:23:47;96215.66;;;1.88;70.04
70072;BME280;57434;42.794;23.302;2022-10-30T03:26:14;96147.41;;;1.58;70.84
70072;BME280;57434;42.794;23.302;2022-10-30T03:28:41;96257.38;;;2.20;70.67
70072;BME280;57434;42.794;23.302;2022-10-30T03:31:13;96266.00;;;2.26;70.61
70072;BME280;57434;42.794;23.302;2022-10-30T03:33:40;96365.97;;;2.98;70.63
70072;BME280;57434;42.794;23.302;2022-10-30T03:36:09;96253.22;;;2.32;71.06
70072;BME280;57434;42.794;23.302;2022-10-30T03:38:37;96229.75;;;2.17;70.77
70072;BME280;57434;42.794;23.302;2022-10-30T03:41:04;96168.91;;;1.47;70.76
70072;BME280;57434;42.794;23.302;2022-10-30T03:43:32;96405.38;;;3.29;71.17
70072;BME280;57434;42.794;23.302;2022-10-30T03:45:59;96278.91;;;2.76;71.15
70072;BME280;57434;42.794;23.302;2022-10-30T03:48:28;96284.16;;;2.27;71.16
70072;BME280;57434;42.794;23.302;2022-10-30T03:50:56;96318.75;;;3.21;70.45
70072;BME280;57434;42.794;23.302;2022-10-30T03:53:25;96414.94;;;3.84;70.52
70072;BME280;57434;42.794;23.302;2022-10-30T03:55:57;96405.75;;;3.67;70.69
70072;BME280;57434;42.794;23.302;2022-10-30T03:58:25;96280.72;;;2.43;71.72
70072;BME280;57434;42.794;23.302;2022-10-30T04:00:52;96060.28;;;1.03;71.78
70072;BME280;57434;42.794;23.302;2022-10-30T04:03:19;96137.09;;;1.38;71.59
70072;BME280;57434;42.794;23.302;2022-10-30T04:05:46;96342.28;;;2.73;71.71
70072;BME280;57434;42.794;23.302;2022-10-30T04:08:13;96199.28;;;1.73;71.12
70072;BME280;57434;42.794;23.302;2022-10-30T04:10:45;96412.59;;;3.42;72.16
70072;BME280;57434;42.794;23.302;2022-10-30T04:13:14;96412.53;;;3.26;73.07
70072;BME280;57434;42.794;23.302;2022-10-30T04:15:42;96414.59;;;3.22;72.77
70072;BME280;57434;42.794;23.302;2022-10-30T04:18:12;96406.78;;;3.37;72.67
70072;BME280;57434;42.794;23.302;2022-10-30T04:20:39;96055.78;;;1.13;72.56
70072;BME280;57434;42.794;23.302;2022-10-30T04:23:09;96410.63;;;3.63;72.00
70072;BME280;57434;42.794;23.302;2022-10-30T04:25:38;96461.91;;;3.55;71.92
70072;BME280;57434;42.794;23.302;2022-10-30T04:28:05;96452.38;;;3.75;71.55
70072;BME280;57434;42.794;23.302;2022-10-30T04:30:32;96451.59;;;3.75;71.59
70072;BME280;57434;42.794;23.302;2022-10-30T04:33:01;96418.13;;;3.82;71.41
70072;BME280;57434;42.794;23.302;2022-10-30T04:35:31;96366.03;;;3.34;70.55
70072;BME280;57434;42.794;23.302;2022-10-30T04:38:00;96228.88;;;2.43;70.31
70072;BME280;57434;42.794;23.302;2022-10-30T04:40:31;96216.06;;;2.29;71.06
70072;BME280;57434;42.794;23.302;2022-10-30T04:42:59;96257.03;;;2.18;71.73
70072;BME280;57434;42.794;23.302;2022-10-30T04:45:26;96371.69;;;2.87;72.19
70072;BME280;57434;42.794;23.302;2022-10-30T04:48:00;96412.47;;;3.30;70.57
70072;BME280;57434;42.794;23.302;2022-10-30T04:50:27;96393.22;;;2.80;69.76
70072;BME280;57434;42.794;23.302;2022-10-30T04:53:02;96413.59;;;2.69;70.58
70072;BME280;57434;42.794;23.302;2022-10-30T04:55:30;96410.56;;;2.84;70.54
70072;BME280;57434;42.794;23.302;2022-10-30T04:57:58;96396.00;;;2.56;70.80
70072;BME280;57434;42.794;23.302;2022-10-30T05:00:30;96041.88;;;0.16;70.90
70072;BME280;57434;42.794;23.302;2022-10-30T05:02:58;96439.78;;;2.88;70.34
70072;BME280;57434;42.794;23.302;2022-10-30T05:05:26;96281.53;;;1.96;69.91
70072;BME280;57434;42.794;23.302;2022-10-30T05:07:53;96321.59;;;2.35;69.31
70072;BME280;57434;42.794;23.302;2022-10-30T05:10:21;96283.53;;;2.39;68.85
70072;BME280;57434;42.794;23.302;2022-10-30T05:12:51;96436.22;;;3.51;68.52
70072;BME280;57434;42.794;23.302;2022-10-30T05:15:18;96433.38;;;3.74;67.83
70072;BME280;57434;42.794;23.302;2022-10-30T05:17:50;96390.28;;;3.50;67.41
70072;BME280;57434;42.794;23.302;2022-10-30T05:20:17;96468.34;;;4.43;66.41
70072;BME280;57434;42.794;23.302;2022-10-30T05:22:45;96240.88;;;2.96;67.36
70072;BME280;57434;42.794;23.302;2022-10-30T05:25:12;96230.72;;;2.89;66.69
70072;BME280;57434;42.794;23.302;2022-10-30T05:27:39;96160.00;;;2.25;67.45
70072;BME280;57434;42.794;23.302;2022-10-30T05:30:06;96237.91;;;3.23;66.50
70072;BME280;57434;42.794;23.302;2022-10-30T05:32:34;96484.06;;;4.14;67.89
70072;BME280;57434;42.794;23.302;2022-10-30T05:35:01;96485.84;;;4.93;66.86
70072;BME280;57434;42.794;23.302;2022-10-30T05:37:28;96271.41;;;3.48;67.26
70072;BME280;57434;42.794;23.302;2022-10-30T05:39:55;96432.97;;;4.28;68.51
70072;BME280;57434;42.794;23.302;2022-10-30T05:42:22;96263.81;;;2.96;68.22
70072;BME280;57434;42.794;23.302;2022-10-30T05:44:49;96309.22;;;3.22;68.70
70072;BME280;57434;42.794;23.302;2022-10-30T05:47:31;96466.34;;;4.60;68.30
70072;BME280;57434;42.794;23.302;2022-10-30T05:49:58;96332.38;;;3.52;68.15
70072;BME280;57434;42.794;23.302;2022-10-30T05:52:25;96255.72;;;3.41;68.38
70072;BME280;57434;42.794;23.302;2022-10-30T05:54:52;96488.34;;;4.87;68.22
70072;BME280;57434;42.794;23.302;2022-10-30T05:57:20;96291.19;;;3.50;69.40
70072;BME280;57434;42.794;23.302;2022-10-30T05:59:47;96508.38;;;4.62;69.97
70072;BME280;57434;42.794;23.302;2022-10-30T06:02:17;96497.72;;;5.09;69.74
70072;BME280;57434;42.794;23.302;2022-10-30T06:04:44;96347.66;;;4.12;69.40
70072;BME280;57434;42.794;23.302;2022-10-30T06:07:12;96338.50;;;4.60;69.36
70072;BME280;57434;42.794;23.302;2022-10-30T06:09:39;96466.94;;;5.62;69.74
70072;BME280;57434;42.794;23.302;2022-10-30T06:12:07;96410.31;;;5.39;69.69
70072;BME280;57434;42.794;23.302;2022-10-30T06:14:34;96323.78;;;4.76;70.80
70072;BME280;57434;42.794;23.302;2022-10-30T06:17:01;96254.19;;;4.79;70.86
70072;BME280;57434;42.794;23.302;2022-10-30T06:19:28;96486.50;;;6.29;70.99
70072;BME280;57434;42.794;23.302;2022-10-30T06:21:56;96454.84;;;6.48;71.77
70072;BME280;57434;42.794;23.302;2022-10-30T06:24:23;96442.91;;;6.60;71.82
70072;BME280;57434;42.794;23.302;2022-10-30T06:26:50;96383.50;;;6.38;72.01
70072;BME280;57434;42.794;23.302;2022-10-30T06:29:17;96287.97;;;6.12;71.24
70072;BME280;57434;42.794;23.302;2022-10-30T06:31:44;96114.59;;;5.01;71.28
70072;BME280;57434;42.794;23.302;2022-10-30T06:34:11;96268.47;;;6.12;71.24
70072;BME280;57434;42.794;23.302;2022-10-30T06:36:38;96262.91;;;6.25;70.90
70072;BME280;57434;42.794;23.302;2022-10-30T06:39:05;96468.66;;;7.71;70.47
70072;BME280;57434;42.794;23.302;2022-10-30T06:41:32;96446.38;;;8.02;69.92
70072;BME280;57434;42.794;23.302;2022-10-30T06:43:59;96320.50;;;7.09;70.00
70072;BME280;57434;42.794;23.302;2022-10-30T06:46:26;96417.19;;;7.81;69.52
70072;BME280;57434;42.794;23.302;2022-10-30T06:48:59;96231.66;;;6.64;70.22
70072;BME280;57434;42.794;23.302;2022-10-30T06:51:26;96243.34;;;6.72;69.32
70072;BME280;57434;42.794;23.302;2022-10-30T06:53:53;96290.25;;;7.30;69.24
70072;BME280;57434;42.794;23.302;2022-10-30T06:56:20;96446.09;;;8.71;68.61
70072;BME280;57434;42.794;23.302;2022-10-30T06:58:47;96179.34;;;7.21;67.57
70072;BME280;57434;42.794;23.302;2022-10-30T07:01:15;96451.09;;;9.44;66.38
70072;BME280;57434;42.794;23.302;2022-10-30T07:03:42;96180.75;;;7.57;65.94
70072;BME280;57434;42.794;23.302;2022-10-30T07:06:09;96398.97;;;9.56;64.50
70072;BME280;57434;42.794;23.302;2022-10-30T07:08:36;96481.63;;;9.88;63.83
70072;BME280;57434;42.794;23.302;2022-10-30T07:11:03;96256.78;;;8.50;63.92
70072;BME280;57434;42.794;23.302;2022-10-30T07:13:30;96343.53;;;9.14;63.98
70072;BME280;57434;42.794;23.302;2022-10-30T07:15:58;96480.03;;;10.14;63.51
70072;BME280;57434;42.794;23.302;2022-10-30T07:18:25;96444.94;;;10.28;62.51
70072;BME280;57434;42.794;23.302;2022-10-30T07:20:55;96237.81;;;9.00;62.40
70072;BME280;57434;42.794;23.302;2022-10-30T07:23:22;96445.78;;;10.52;62.55
70072;BME280;57434;42.794;23.302;2022-10-30T07:25:49;96255.22;;;8.49;63.67
70072;BME280;57434;42.794;23.302;2022-10-30T07:28:16;96442.41;;;10.48;62.89
70072;BME280;57434;42.794;23.302;2022-10-30T07:30:43;96254.41;;;9.91;61.05
70072;BME280;57434;42.794;23.302;2022-10-30T07:33:10;96250.44;;;10.07;60.18
70072;BME280;57434;42.794;23.302;2022-10-30T07:35:37;96246.31;;;9.93;60.58
70072;BME280;57434;42.794;23.302;2022-10-30T07:38:08;96218.50;;;10.13;59.58
70072;BME280;57434;42.794;23.302;2022-10-30T07:40:36;96436.94;;;11.97;58.71
70072;BME280;57434;42.794;23.302;2022-10-30T07:43:03;96231.03;;;10.75;58.97
70072;BME280;57434;42.794;23.302;2022-10-30T07:45:31;96303.03;;;11.02;58.42
70072;BME280;57434;42.794;23.302;2022-10-30T07:47:58;96438.22;;;11.33;60.57
70072;BME280;57434;42.794;23.302;2022-10-30T07:50:26;96408.00;;;11.28;61.33
70072;BME280;57434;42.794;23.302;2022-10-30T07:52:53;96207.25;;;10.85;59.05
70072;BME280;57434;42.794;23.302;2022-10-30T07:55:20;96267.84;;;11.30;57.45
70072;BME280;57434;42.794;23.302;2022-10-30T07:57:48;96274.72;;;11.59;56.27
70072;BME280;57434;42.794;23.302;2022-10-30T08:00:16;96353.81;;;12.54;57.05
70072;BME280;57434;42.794;23.302;2022-10-30T08:02:48;96288.28;;;12.04;55.41
70072;BME280;57434;42.794;23.302;2022-10-30T08:05:16;96396.66;;;13.34;55.32
70072;BME280;57434;42.794;23.302;2022-10-30T08:07:45;96206.19;;;12.55;54.35
70072;BME280;57434;42.794;23.302;2022-10-30T08:10:13;96233.53;;;12.96;53.57
70072;BME280;57434;42.794;23.302;2022-10-30T08:12:40;96392.06;;;14.55;52.45
70072;BME280;57434;42.794;23.302;2022-10-30T08:15:07;96358.91;;;14.50;52.27
70072;BME280;57434;42.794;23.302;2022-10-30T08:17:42;96295.25;;;13.60;52.68
70072;BME280;57434;42.794;23.302;2022-10-30T08:20:11;96370.31;;;14.61;51.99
70072;BME280;57434;42.794;23.302;2022-10-30T08:22:47;96401.13;;;14.96;52.32
70072;BME280;57434;42.794;23.302;2022-10-30T08:25:16;96280.22;;;13.69;52.22
70072;BME280;57434;42.794;23.302;2022-10-30T08:28:04;95972.13;;;12.11;53.27
70072;BME280;57434;42.794;23.302;2022-10-30T08:30:34;96368.06;;;15.08;53.31
70072;BME280;57434;42.794;23.302;2022-10-30T08:33:11;95965.06;;;13.10;51.31
70072;BME280;57434;42.794;23.302;2022-10-30T08:35:45;96374.84;;;16.03;50.85
70072;BME280;57434;42.794;23.302;2022-10-30T08:38:12;96264.34;;;15.31;50.46
70072;BME280;57434;42.794;23.302;2022-10-30T08:40:39;96229.91;;;15.32;50.09
70072;BME280;57434;42.794;23.302;2022-10-30T08:43:07;96369.16;;;15.86;50.65
70072;BME280;57434;42.794;23.302;2022-10-30T08:45:34;96356.88;;;16.12;50.06
70072;BME280;57434;42.794;23.302;2022-10-30T08:48:03;96366.44;;;16.70;49.06
70072;BME280;57434;42.794;23.302;2022-10-30T08:50:32;96219.44;;;16.00;47.92
70072;BME280;57434;42.794;23.302;2022-10-30T08:53:00;96356.63;;;16.21;49.83
70072;BME280;57434;42.794;23.302;2022-10-30T08:55:32;96269.59;;;15.82;49.35
70072;BME280;57434;42.794;23.302;2022-10-30T08:58:00;96149.19;;;15.31;48.83
70072;BME280;57434;42.794;23.302;2022-10-30T09:00:28;96343.66;;;17.26;47.91
70072;BME280;57434;42.794;23.302;2022-10-30T09:02:55;96183.44;;;15.95;47.58
70072;BME280;57434;42.794;23.302;2022-10-30T09:05:26;96383.41;;;17.04;47.87
70072;BME280;57434;42.794;23.302;2022-10-30T09:07:56;96179.78;;;16.33;46.65
70072;BME280;57434;42.794;23.302;2022-10-30T09:10:25;96174.09;;;16.39;46.91
70072;BME280;57434;42.794;23.302;2022-10-30T09:12:56;96311.97;;;17.80;46.52
70072;BME280;57434;42.794;23.302;2022-10-30T09:15:25;96114.94;;;16.87;44.76
70072;BME280;57434;42.794;23.302;2022-10-30T09:17:59;96223.00;;;17.72;45.05
70072;BME280;57434;42.794;23.302;2022-10-30T09:20:28;96328.50;;;18.47;44.71
70072;BME280;57434;42.794;23.302;2022-10-30T09:22:55;96110.63;;;17.57;43.84
70072;BME280;57434;42.794;23.302;2022-10-30T09:25:23;96201.69;;;18.19;44.26
70072;BME280;57434;42.794;23.302;2022-10-30T09:27:51;96112.06;;;18.00;42.84
70072;BME280;57434;42.794;23.302;2022-10-30T09:30:18;96320.63;;;19.80;42.76
70072;BME280;57434;42.794;23.302;2022-10-30T09:32:45;96328.78;;;19.71;42.36
70072;BME280;57434;42.794;23.302;2022-10-30T09:35:20;96069.16;;;16.78;44.07
70072;BME280;57434;42.794;23.302;2022-10-30T09:37:48;96305.63;;;19.42;43.41
70072;BME280;57434;42.794;23.302;2022-10-30T09:56:46;96086.31;;;19.53;39.78
70072;BME280;57434;42.794;23.302;2022-10-30T10:02:28;96273.94;;;21.24;39.21
70072;BME280;57434;42.794;23.302;2022-10-30T10:05:15;96143.34;;;20.91;38.25
70072;BME280;57434;42.794;23.302;2022-10-30T10:07:50;96254.31;;;20.17;40.94
70072;BME280;57434;42.794;23.302;2022-10-30T10:10:37;96101.88;;;18.77;41.73
70072;BME280;57434;42.794;23.302;2022-10-30T10:13:14;96138.84;;;19.52;41.43
70072;BME280;57434;42.794;23.302;2022-10-30T10:15:58;96250.00;;;20.88;39.58
70072;BME280;57434;42.794;23.302;2022-10-30T10:18:30;96255.94;;;21.16;39.15
70072;BME280;57434;42.794;23.302;2022-10-30T10:21:06;96096.13;;;20.56;39.00
70072;BME280;57434;42.794;23.302;2022-10-30T10:23:40;96237.88;;;22.50;37.33
70072;BME280;57434;42.794;23.302;2022-10-30T10:26:39;96238.63;;;22.50;37.72
70072;BME280;57434;42.794;23.302;2022-10-30T10:29:27;96002.41;;;21.20;36.71
70072;BME280;57434;42.794;23.302;2022-10-30T10:32:09;96129.94;;;22.01;36.19
70072;BME280;57434;42.794;23.302;2022-10-30T10:35:04;96215.84;;;22.16;37.57
70072;BME280;57434;42.794;23.302;2022-10-30T10:37:43;95983.81;;;20.72;37.37
70072;BME280;57434;42.794;23.302;2022-10-30T10:40:27;96216.66;;;22.45;37.55
70072;BME280;57434;42.794;23.302;2022-10-30T10:43:20;96188.72;;;22.80;36.78
70072;BME280;57434;42.794;23.302;2022-10-30T10:45:58;96196.31;;;23.06;36.59
70072;BME280;57434;42.794;23.302;2022-10-30T10:51:21;96037.75;;;22.01;36.35
70072;BME280;57434;42.794;23.302;2022-10-30T10:54:02;96078.66;;;22.45;36.45
70072;BME280;57434;42.794;23.302;2022-10-30T10:56:38;96140.56;;;23.35;35.88
70072;BME280;57434;42.794;23.302;2022-10-30T10:59:14;96169.41;;;24.19;34.72
70072;BME280;57434;42.794;23.302;2022-10-30T11:01:48;96116.97;;;23.57;34.43
70072;BME280;57434;42.794;23.302;2022-10-30T11:04:42;96017.72;;;21.72;36.18
70072;BME280;57434;42.794;23.302;2022-10-30T11:07:51;96172.06;;;22.71;36.85
70072;BME280;57434;42.794;23.302;2022-10-30T11:10:14;96163.38;;;23.20;36.10
70072;BME280;57434;42.794;23.302;2022-10-30T11:12:41;96127.88;;;23.74;35.50
70072;BME280;57434;42.794;23.302;2022-10-30T11:18:18;95926.13;;;22.78;34.81
70072;BME280;57434;42.794;23.302;2022-10-30T11:21:12;96134.03;;;24.47;33.57
70072;BME280;57434;42.794;23.302;2022-10-30T11:23:54;96142.06;;;24.79;33.44
70072;BME280;57434;42.794;23.302;2022-10-30T11:26:33;96127.13;;;24.88;33.64
70072;BME280;57434;42.794;23.302;2022-10-30T11:29:18;96127.56;;;24.69;33.60
70072;BME280;57434;42.794;23.302;2022-10-30T11:32:08;96038.50;;;24.06;32.98
70072;BME280;57434;42.794;23.302;2022-10-30T11:35:14;96112.88;;;25.05;32.96
70072;BME280;57434;42.794;23.302;2022-10-30T11:38:19;96072.47;;;24.63;32.54
70072;BME280;57434;42.794;23.302;2022-10-30T11:40:51;96112.28;;;24.44;33.46
70072;BME280;57434;42.794;23.302;2022-10-30T11:43:25;95977.09;;;23.10;33.96
70072;BME280;57434;42.794;23.302;2022-10-30T11:45:59;96128.09;;;24.52;34.21
70072;BME280;57434;42.794;23.302;2022-10-30T11:48:32;96103.69;;;25.07;33.02
70072;BME280;57434;42.794;23.302;2022-10-30T11:51:08;96058.63;;;24.84;33.05
70072;BME280;57434;42.794;23.302;2022-10-30T11:53:49;95811.69;;;23.01;32.75
70072;BME280;57434;42.794;23.302;2022-10-30T11:56:26;96104.13;;;24.95;32.71
70072;BME280;57434;42.794;23.302;2022-10-30T11:59:04;96094.19;;;24.96;32.26
70072;BME280;57434;42.794;23.302;2022-10-30T12:01:47;96114.91;;;24.49;33.63
70072;BME280;57434;42.794;23.302;2022-10-30T12:04:31;96083.53;;;24.59;32.45
70072;BME280;57434;42.794;23.302;2022-10-30T12:09:56;95940.88;;;23.20;32.29
70072;BME280;57434;42.794;23.302;2022-10-30T12:12:37;95956.00;;;23.51;32.62
70072;BME280;57434;42.794;23.302;2022-10-30T12:17:59;96080.13;;;23.92;32.06
70072;BME280;57434;42.794;23.302;2022-10-30T12:20:36;95876.72;;;22.93;31.86
70072;BME280;57434;42.794;23.302;2022-10-30T12:23:16;96071.38;;;24.13;31.77
70072;BME280;57434;42.794;23.302;2022-10-30T12:25:52;96060.41;;;24.65;31.55
70072;BME280;57434;42.794;23.302;2022-10-30T12:28:31;95927.19;;;23.34;30.36
70072;BME280;57434;42.794;23.302;2022-10-30T12:31:18;96036.75;;;24.41;30.22
70072;BME280;57434;42.794;23.302;2022-10-30T12:34:09;96042.63;;;24.66;29.71
70072;BME280;57434;42.794;23.302;2022-10-30T12:42:41;95786.13;;;23.03;29.15
70072;BME280;57434;42.794;23.302;2022-10-30T12:45:23;96034.22;;;25.08;29.75
70072;BME280;57434;42.794;23.302;2022-10-30T12:54:11;95920.84;;;23.36;28.90
70072;BME280;57434;42.794;23.302;2022-10-30T12:56:55;95885.03;;;22.53;29.69
70072;BME280;57434;42.794;23.302;2022-10-30T12:59:53;95854.78;;;22.14;30.64
70072;BME280;57434;42.794;23.302;2022-10-30T13:03:04;95965.56;;;22.80;31.10
70072;BME280;57434;42.794;23.302;2022-10-30T13:06:13;96019.66;;;23.06;30.71
70072;BME280;57434;42.794;23.302;2022-10-30T13:09:01;96015.44;;;23.07;31.13
70072;BME280;57434;42.794;23.302;2022-10-30T13:12:00;95942.78;;;22.51;30.67
70072;BME280;57434;42.794;23.302;2022-10-30T13:14:46;95873.00;;;21.95;30.84
70072;BME280;57434;42.794;23.302;2022-10-30T13:17:25;96005.72;;;23.03;31.15
70072;BME280;57434;42.794;23.302;2022-10-30T13:20:13;95912.34;;;22.18;31.65
70072;BME280;57434;42.794;23.302;2022-10-30T13:23:14;96022.53;;;22.62;32.34
70072;BME280;57434;42.794;23.302;2022-10-30T13:26:07;96018.94;;;22.70;33.58
70072;BME280;57434;42.794;23.302;2022-10-30T13:37:19;95944.63;;;21.77;33.82
70072;BME280;57434;42.794;23.302;2022-10-30T13:46:26;96016.53;;;21.88;35.96
70072;BME280;57434;42.794;23.302;2022-10-30T13:54:14;96010.78;;;21.60;37.11
70072;BME280;57434;42.794;23.302;2022-10-30T13:56:44;95985.03;;;21.32;37.15
70072;BME280;57434;42.794;23.302;2022-10-30T14:02:15;96027.28;;;21.33;38.00
70072;BME280;57434;42.794;23.302;2022-10-30T14:05:11;96018.63;;;21.25;38.19
70072;BME280;57434;42.794;23.302;2022-10-30T14:07:52;95964.78;;;20.88;38.12
70072;BME280;57434;42.794;23.302;2022-10-30T14:10:40;96031.91;;;21.02;38.42
70072;BME280;57434;42.794;23.302;2022-10-30T14:13:25;96012.69;;;20.89;38.47
70072;BME280;57434;42.794;23.302;2022-10-30T14:16:01;96019.53;;;20.86;38.58
70072;BME280;57434;42.794;23.302;2022-10-30T14:18:58;96027.56;;;20.61;39.00
70072;BME280;57434;42.794;23.302;2022-10-30T14:21:41;95860.16;;;19.54;38.72
70072;BME280;57434;42.794;23.302;2022-10-30T14:27:08;96016.88;;;20.54;39.39
70072;BME280;57434;42.794;23.302;2022-10-30T14:29:44;95890.16;;;19.55;39.71
70072;BME280;57434;42.794;23.302;2022-10-30T14:39:50;95992.25;;;20.04;40.41
70072;BME280;57434;42.794;23.302;2022-10-30T14:42:50;96021.03;;;20.01;41.68
70072;BME280;57434;42.794;23.302;2022-10-30T14:45:26;96012.59;;;19.95;41.36
70072;BME280;57434;42.794;23.302;2022-10-30T14:51:18;96043.13;;;19.81;42.36
70072;BME280;57434;42.794;23.302;2022-10-30T14:54:00;96021.34;;;19.71;42.52
70072;BME280;57434;42.794;23.302;2022-10-30T14:56:40;96019.59;;;19.36;43.35
70072;BME280;57434;42.794;23.302;2022-10-30T15:01:53;95969.38;;;18.74;43.75
70072;BME280;57434;42.794;23.302;2022-10-30T15:07:23;96017.09;;;19.13;44.11
70072;BME280;57434;42.794;23.302;2022-10-30T15:12:40;96023.72;;;19.03;44.23
70072;BME280;57434;42.794;23.302;2022-10-30T15:15:13;95876.34;;;17.86;44.17